Time;durP1;ratioP1;P1;durP2;ratioP2;P2;SDS_P1;SDS_P2;PMS_P1;PMS_P2;Temp;Humidity;BMP_temperature;BMP_pressure;BME280_temperature;BME280_humidity;BME280_pressure;Samples;Min_cycle;Max_cycle;Signal;HPM_P1;HPM_P2
2023/01/24 00:00:11;;;;;;;2.60;2.07;;;2.40;99.90;3.30;97894.00;;;;5039910;28;20458;-67
2023/01/24 00:03:00;;;;;;;1.40;1.30;;;2.40;99.90;3.20;97886.00;;;;5049708;28;20431;-66
2023/01/24 00:05:51;;;;;;;6.00;2.33;;;2.30;99.90;3.30;97887.00;;;;5040606;28;20416;-67
2023/01/24 00:08:39;;;;;;;2.20;2.00;;;2.30;99.90;3.40;97894.00;;;;5018388;28;21069;-66
2023/01/24 00:11:28;;;;;;;2.17;1.97;;;2.30;99.90;3.40;97906.00;;;;5040083;28;20447;-66
2023/01/24 00:14:17;;;;;;;2.43;1.97;;;2.40;99.90;3.50;97904.00;;;;5030056;28;20451;-66
2023/01/24 00:17:07;;;;;;;3.17;2.23;;;2.40;99.90;3.60;97906.00;;;;5030072;28;20977;-66
2023/01/24 00:19:56;;;;;;;3.30;1.50;;;2.40;99.90;3.50;97902.00;;;;5029320;28;20479;-66
2023/01/24 00:22:46;;;;;;;1.63;1.53;;;1.40;99.90;3.50;97902.00;;;;5029304;28;20794;-66
2023/01/24 00:25:34;;;;;;;2.00;1.87;;;2.40;99.90;3.40;97901.00;;;;5029459;28;20778;-66
2023/01/24 00:28:23;;;;;;;2.80;1.67;;;2.30;99.90;3.30;97902.00;;;;5029005;28;20440;-66
2023/01/24 00:31:13;;;;;;;4.70;1.73;;;2.40;99.90;3.30;97908.00;;;;5029607;28;20495;-66
2023/01/24 00:34:02;;;;;;;1.30;1.20;;;2.30;99.90;3.20;97903.00;;;;5029440;28;20439;-66
2023/01/24 00:36:50;;;;;;;4.67;1.80;;;2.30;99.90;3.30;97914.00;;;;5047330;28;20411;-66
2023/01/24 00:39:40;;;;;;;1.67;1.40;;;2.30;99.90;3.30;97904.00;;;;5040984;28;20429;-66
2023/01/24 00:42:29;;;;;;;1.87;1.77;;;2.30;99.90;3.30;97906.00;;;;5028475;28;20470;-66
2023/01/24 00:45:18;;;;;;;2.17;1.97;;;2.30;99.90;3.10;97911.00;;;;5029249;28;20467;-66
2023/01/24 00:48:09;;;;;;;2.57;1.43;;;2.30;99.90;3.40;97919.00;;;;5049082;28;20443;-66
2023/01/24 00:50:57;;;;;;;1.60;1.50;;;2.30;99.90;3.60;97916.00;;;;5037037;28;20670;-66
2023/01/24 00:53:46;;;;;;;2.57;2.17;;;2.30;99.90;3.70;97915.00;;;;5020928;28;20417;-66
2023/01/24 00:56:36;;;;;;;1.87;1.67;;;2.40;99.90;3.80;97915.00;;;;5028928;28;20432;-66
2023/01/24 00:59:25;;;;;;;2.13;1.90;;;2.40;99.90;3.80;97915.00;;;;5028456;28;21061;-66
2023/01/24 01:02:14;;;;;;;1.83;1.73;;;2.40;99.90;3.70;97911.00;;;;5029024;28;20460;-66
2023/01/24 01:05:02;;;;;;;4.57;1.73;;;2.40;99.90;3.70;97916.00;;;;5029257;28;20431;-66
2023/01/24 01:07:51;;;;;;;2.33;1.70;;;2.40;99.90;3.70;97919.00;;;;5028228;28;20479;-66
2023/01/24 01:10:41;;;;;;;1.67;1.33;;;2.50;99.90;3.60;97920.00;;;;5032159;28;20501;-66
2023/01/24 01:13:31;;;;;;;2.30;1.80;;;2.40;99.90;3.60;97919.00;;;;5030387;28;20454;-66
2023/01/24 01:16:21;;;;;;;2.57;2.37;;;2.50;99.90;3.60;97911.00;;;;5028514;28;20443;-66
2023/01/24 01:19:10;;;;;;;1.80;1.60;;;2.50;99.90;3.60;97922.00;;;;5029384;28;20737;-66
2023/01/24 01:21:59;;;;;;;1.70;1.60;;;2.50;99.90;3.60;97917.00;;;;5028563;28;20452;-66
2023/01/24 01:24:48;;;;;;;1.93;1.77;;;2.40;99.90;3.60;97920.00;;;;5029013;28;20845;-66
2023/01/24 01:27:37;;;;;;;1.40;1.30;;;2.40;99.90;3.60;97919.00;;;;5027624;28;20451;-66
2023/01/24 01:30:27;;;;;;;2.77;1.67;;;2.40;99.90;3.60;97912.00;;;;5029101;28;20970;-66
2023/01/24 01:33:15;;;;;;;2.10;1.90;;;2.40;99.90;3.70;97914.00;;;;5029055;28;20435;-66
2023/01/24 01:36:05;;;;;;;1.70;1.60;;;2.40;99.90;3.60;97908.00;;;;5021736;28;20452;-66
2023/01/24 01:38:54;;;;;;;2.10;1.90;;;2.40;99.90;3.50;97906.00;;;;5027589;28;21013;-66
2023/01/24 01:41:42;;;;;;;1.47;1.37;;;2.40;99.90;3.40;97911.00;;;;5026316;28;20463;-66
2023/01/24 01:44:46;;;;;;;1.47;1.37;;;2.40;99.90;3.30;97916.00;;;;5037880;28;20427;-66
2023/01/24 01:47:37;;;;;;;1.20;1.20;;;2.40;99.90;3.40;97909.00;;;;5047826;28;20431;-66
2023/01/24 01:50:33;;;;;;;1.57;1.47;;;2.40;99.90;3.50;97911.00;;;;5044097;28;20443;-66
2023/01/24 01:53:23;;;;;;;1.67;1.40;;;2.40;99.90;3.50;97922.00;;;;5026394;28;20432;-66
2023/01/24 01:56:19;;;;;;;1.80;1.70;;;2.40;99.90;3.60;97921.00;;;;5046073;28;20423;-66
2023/01/24 01:59:14;;;;;;;1.77;1.50;;;2.40;99.90;3.50;97926.00;;;;5047024;28;20467;-66
2023/01/24 02:02:04;;;;;;;2.07;1.87;;;2.40;99.90;3.50;97924.00;;;;5048511;28;20461;-66
2023/01/24 02:05:00;;;;;;;1.80;1.70;;;2.40;99.90;3.40;97923.00;;;;5049078;28;20434;-66
2023/01/24 02:07:55;;;;;;;1.83;1.70;;;2.40;99.90;3.50;97920.00;;;;5048304;28;20431;-66
2023/01/24 02:16:01;;;;;;;1.70;1.60;;;2.40;99.90;3.50;97911.00;;;;5025911;28;20483;-66
2023/01/24 02:16:59;;;;;;;2.53;2.33;;;2.40;99.90;3.30;97917.00;;;;5028134;28;20941;-66
2023/01/24 02:20:03;;;;;;;3.43;2.07;;;2.40;99.90;3.40;97929.00;;;;5027864;28;20475;-66
2023/01/24 02:23:04;;;;;;;2.43;1.73;;;2.40;99.90;3.40;97937.00;;;;5029302;28;20448;-66
2023/01/24 02:26:05;;;;;;;2.63;1.90;;;2.30;99.90;3.40;97929.00;;;;5016334;28;20421;-66
2023/01/24 02:28:57;;;;;;;1.90;1.70;;;2.30;99.90;3.40;97935.00;;;;5031622;28;20942;-66
2023/01/24 02:31:58;;;;;;;2.47;2.27;;;2.30;99.90;3.40;97938.00;;;;5029719;28;20810;-66
2023/01/24 02:34:47;;;;;;;6.37;2.47;;;3.80;99.90;3.40;97933.00;;;;5033251;28;20438;-66
2023/01/24 02:37:37;;;;;;;3.07;2.33;;;2.30;99.90;3.30;97932.00;;;;5052294;28;20506;-66
2023/01/24 02:40:28;;;;;;;6.93;2.93;;;2.30;99.90;3.40;97932.00;;;;5050736;28;20442;-66
2023/01/24 02:43:22;;;;;;;5.40;3.13;;;2.30;99.90;3.40;97938.00;;;;5051542;28;20467;-66
2023/01/24 02:46:10;;;;;;;4.90;2.87;;;2.30;99.90;3.60;97933.00;;;;5051280;28;20423;-66
2023/01/24 02:48:59;;;;;;;4.93;3.00;;;2.30;99.90;3.60;97925.00;;;;5051692;28;20898;-66
2023/01/24 02:54:54;;;;;;;5.33;2.73;;;2.40;99.90;3.60;97936.00;;;;5019437;28;20451;-66
2023/01/24 03:00:50;;;;;;;5.83;3.43;;;2.40;99.90;3.80;97944.00;;;;5032318;28;20459;-66
2023/01/24 03:03:39;;;;;;;11.83;3.30;;;2.40;99.90;3.80;97938.00;;;;5032040;28;20428;-66
2023/01/24 03:06:28;;;;;;;6.20;2.87;;;2.50;99.90;3.80;97939.00;;;;5031119;28;20514;-66
2023/01/24 03:09:19;;;;;;;6.17;3.13;;;2.50;99.90;3.80;97941.00;;;;5030538;28;20435;-66
2023/01/24 03:37:01;;;;;;;4.80;3.13;;;2.50;99.90;3.90;97953.00;;;;5024175;28;20428;-66
2023/01/24 03:39:58;;;;;;;7.60;2.90;;;2.50;99.90;3.90;97954.00;;;;5049680;28;20475;-66
2023/01/24 03:42:49;;;;;;;5.10;3.20;;;2.50;99.90;3.90;97956.00;;;;5050988;28;20535;-66
2023/01/24 03:45:40;;;;;;;4.93;2.97;;;2.50;99.90;3.90;97950.00;;;;5049632;28;20515;-65
2023/01/24 03:48:34;;;;;;;6.70;2.87;;;2.60;99.90;3.90;97956.00;;;;5049936;28;20430;-66
2023/01/24 03:54:30;;;;;;;3.97;3.07;;;2.60;99.90;3.70;97966.00;;;;5031095;28;20459;-66
2023/01/24 03:57:19;;;;;;;9.17;4.13;;;2.60;99.90;3.90;97969.00;;;;5049856;28;20430;-65
2023/01/24 04:00:10;;;;;;;5.57;4.00;;;2.60;99.90;3.80;97970.00;;;;5050628;28;20463;-65
2023/01/24 04:02:59;;;;;;;4.67;3.43;;;2.60;99.90;3.70;97968.00;;;;5049346;28;20431;-66
2023/01/24 04:05:48;;;;;;;3.27;2.97;;;2.60;99.90;3.50;97963.00;;;;5050215;28;20506;-64
2023/01/24 04:08:38;;;;;;;4.80;2.43;;;2.60;99.90;3.60;97964.00;;;;5048910;28;20872;-65
2023/01/24 04:11:27;;;;;;;6.13;3.00;;;2.60;99.90;3.80;97973.00;;;;5049749;28;20442;-66
2023/01/24 04:14:15;;;;;;;3.50;2.00;;;2.60;99.90;3.70;97959.00;;;;5029803;28;20428;-66
2023/01/24 04:17:04;;;;;;;2.93;2.03;;;2.50;99.90;3.50;97957.00;;;;5030676;28;20482;-66
2023/01/24 04:19:53;;;;;;;3.10;2.50;;;2.50;99.90;3.40;97962.00;;;;5030698;28;20468;-66
2023/01/24 04:22:42;;;;;;;4.03;1.90;;;2.40;99.90;3.50;97956.00;;;;5029592;28;20972;-66
2023/01/24 04:25:32;;;;;;;2.13;1.80;;;2.40;99.90;3.40;97968.00;;;;5029691;28;20479;-65
2023/01/24 04:28:21;;;;;;;1.40;1.30;;;2.40;99.90;3.40;97966.00;;;;5028872;28;20803;-66
2023/01/24 04:31:12;;;;;;;1.80;1.70;;;2.40;99.90;3.50;97964.00;;;;5030145;28;20575;-66
2023/01/24 04:34:01;;;;;;;2.70;2.23;;;2.40;99.90;3.60;97964.00;;;;5029359;28;20421;-66
2023/01/24 04:36:49;;;;;;;2.93;2.57;;;2.40;99.90;3.80;97973.00;;;;5029479;28;20417;-66
2023/01/24 04:39:38;;;;;;;4.17;2.27;;;2.50;99.90;3.90;97975.00;;;;5029812;28;20464;-65
2023/01/24 04:42:28;;;;;;;1.83;1.73;;;2.40;99.90;3.70;97976.00;;;;5029328;28;20479;-66
2023/01/24 04:45:17;;;;;;;3.90;1.93;;;2.50;99.90;3.70;97986.00;;;;5044064;28;20432;-66
2023/01/24 04:48:06;;;;;;;1.70;1.47;;;2.50;99.90;3.80;97984.00;;;;5049263;28;20485;-66
2023/01/24 04:51:00;;;;;;;3.40;1.80;;;2.50;99.90;3.90;97979.00;;;;5027228;28;20440;-66
2023/01/24 04:53:48;;;;;;;3.50;2.17;;;2.50;99.90;4.00;97989.00;;;;5030738;28;20428;-65
2023/01/24 04:56:37;;;;;;;7.90;1.80;;;2.50;99.90;4.00;97993.00;;;;5030719;28;20423;-66
2023/01/24 04:59:27;;;;;;;2.00;1.90;;;2.50;99.90;3.90;97996.00;;;;5043106;28;20466;-65
2023/01/24 05:02:16;;;;;;;2.20;2.00;;;2.60;99.90;3.80;97986.00;;;;5033327;28;20439;-65
2023/01/24 05:05:06;;;;;;;2.20;2.00;;;2.60;99.90;3.80;97992.00;;;;5049521;28;20972;-66
2023/01/24 05:07:54;;;;;;;2.33;1.90;;;2.60;99.90;3.70;97990.00;;;;5048315;28;20428;-66
2023/01/24 05:10:43;;;;;;;2.87;2.57;;;2.60;99.90;3.70;97992.00;;;;5033556;28;20464;-66
2023/01/24 05:13:32;;;;;;;2.20;1.77;;;2.50;99.90;3.80;97989.00;;;;5031401;28;20433;-66
2023/01/24 05:16:22;;;;;;;3.67;1.93;;;2.50;99.90;3.80;97986.00;;;;5046989;28;20427;-66
2023/01/24 05:19:11;;;;;;;2.43;2.00;;;2.50;99.90;3.90;97993.00;;;;5048602;28;20415;-66
2023/01/24 05:21:59;;;;;;;1.90;1.80;;;2.60;99.90;3.80;97988.00;;;;5048989;28;20451;-67
2023/01/24 05:24:48;;;;;;;4.07;3.00;;;2.60;99.90;3.90;97994.00;;;;5028777;28;20426;-66
2023/01/24 05:27:37;;;;;;;3.33;2.20;;;2.60;99.90;4.00;97996.00;;;;5027387;28;20440;-66
2023/01/24 05:30:25;;;;;;;2.30;2.10;;;2.60;99.90;4.00;97994.00;;;;5026594;28;20870;-66
2023/01/24 05:33:15;;;;;;;2.47;2.03;;;2.60;99.90;4.00;97994.00;;;;5024600;28;20433;-66
2023/01/24 05:36:08;;;;;;;2.57;2.10;;;2.60;99.90;4.00;98000.00;;;;5027376;28;20829;-66
2023/01/24 05:38:56;;;;;;;2.10;1.90;;;2.70;99.90;4.00;98009.00;;;;5026310;28;20440;-66
2023/01/24 05:41:45;;;;;;;2.57;1.90;;;2.70;99.90;4.10;97999.00;;;;5023521;28;20466;-66
2023/01/24 05:44:34;;;;;;;3.67;2.40;;;2.70;99.90;4.00;98003.00;;;;5023880;28;20515;-67
2023/01/24 05:47:23;;;;;;;2.10;1.90;;;2.70;99.90;3.90;98009.00;;;;5023625;28;20415;-67
2023/01/24 05:50:13;;;;;;;2.60;1.80;;;2.70;99.90;3.90;98008.00;;;;5025908;28;20428;-67
2023/01/24 05:53:03;;;;;;;2.37;1.80;;;2.70;99.90;4.00;98025.00;;;;5020118;28;20425;-67
2023/01/24 05:55:56;;;;;;;1.83;1.73;;;2.70;99.90;4.00;98016.00;;;;5027226;28;20427;-67
2023/01/24 05:58:46;;;;;;;1.93;1.83;;;2.60;99.90;4.00;98025.00;;;;5037540;28;20994;-67
2023/01/24 06:01:35;;;;;;;4.63;3.10;;;2.70;99.90;4.00;98025.00;;;;5028956;28;20553;-68
2023/01/24 06:04:24;;;;;;;3.77;1.60;;;2.70;99.90;3.90;98024.00;;;;5027719;28;20436;-67
2023/01/24 06:07:14;;;;;;;5.13;1.93;;;2.70;99.90;3.90;98036.00;;;;5026923;28;21243;-67
2023/01/24 06:10:03;;;;;;;2.63;1.90;;;2.70;99.90;3.80;98034.00;;;;5034836;28;20424;-67
2023/01/24 06:12:52;;;;;;;1.80;1.70;;;2.70;99.90;3.90;98039.00;;;;5029336;28;20795;-66
2023/01/24 06:15:41;;;;;;;1.70;1.60;;;2.70;99.90;3.90;98037.00;;;;5022153;28;20850;-66
2023/01/24 06:18:30;;;;;;;2.43;1.60;;;2.70;99.90;3.80;98051.00;;;;5018685;28;20431;-66
2023/01/24 06:21:43;;;;;;;1.50;1.40;;;2.60;99.90;3.70;98044.00;;;;5032122;28;20471;-67
2023/01/24 06:24:34;;;;;;;1.80;1.57;;;2.60;99.90;3.60;98054.00;;;;5032118;28;20420;-66
2023/01/24 06:27:24;;;;;;;2.20;1.67;;;2.60;99.90;3.70;98058.00;;;;5025957;28;20456;-67
2023/01/24 06:30:14;;;;;;;2.90;1.93;;;2.60;99.90;3.70;98069.00;;;;5024416;28;20527;-66
2023/01/24 06:33:19;;;;;;;1.80;1.70;;;2.60;99.90;3.70;98068.00;;;;5025061;28;20422;-66
2023/01/24 06:36:31;;;;;;;1.70;1.60;;;2.50;99.90;3.80;98075.00;;;;5022461;28;20428;-66
2023/01/24 06:39:21;;;;;;;1.50;1.40;;;2.60;99.90;3.80;98074.00;;;;5034398;28;20420;-66
2023/01/24 06:42:11;;;;;;;1.97;1.77;;;2.60;99.90;3.80;98084.00;;;;5029112;28;20444;-66
2023/01/24 06:45:00;;;;;;;1.60;1.50;;;2.60;99.90;3.80;98083.00;;;;5029145;28;20420;-66
2023/01/24 06:47:49;;;;;;;2.47;2.00;;;2.60;99.90;3.70;98085.00;;;;5027423;28;20482;-67
2023/01/24 06:50:37;;;;;;;2.17;1.90;;;2.60;99.90;3.90;98086.00;;;;5027144;28;20432;-66
2023/01/24 06:53:26;;;;;;;2.13;1.93;;;2.60;99.90;4.00;98095.00;;;;5037985;28;20436;-66
2023/01/24 06:56:15;;;;;;;6.77;1.80;;;2.60;99.90;4.00;98096.00;;;;5042641;28;20416;-66
2023/01/24 06:59:05;;;;;;;1.90;1.80;;;2.60;99.90;4.00;98095.00;;;;5032982;28;20436;-66
2023/01/24 07:01:54;;;;;;;2.07;1.80;;;2.60;99.90;4.00;98097.00;;;;5027605;28;20516;-66
2023/01/24 07:04:43;;;;;;;2.00;1.80;;;2.60;99.90;4.00;98095.00;;;;5023821;28;20421;-66
2023/01/24 07:07:31;;;;;;;1.90;1.80;;;2.60;99.90;4.00;98102.00;;;;5041494;28;20417;-66
2023/01/24 07:10:20;;;;;;;2.50;2.30;;;2.60;99.90;3.90;98092.00;;;;5018132;28;20452;-66
2023/01/24 07:13:09;;;;;;;2.67;2.47;;;2.70;99.90;3.90;98105.00;;;;5023571;28;20489;-66
2023/01/24 07:16:02;;;;;;;1.87;1.77;;;2.70;99.90;3.90;98114.00;;;;5051856;28;20422;-66
2023/01/24 07:18:52;;;;;;;2.27;1.00;;;2.70;99.90;3.90;98107.00;;;;5050386;28;20422;-67
2023/01/24 07:21:41;;;;;;;1.67;1.40;;;2.70;99.90;4.00;98113.00;;;;5051395;28;20545;-67
2023/01/24 07:24:31;;;;;;;1.93;1.77;;;2.70;99.90;4.10;98116.00;;;;5049594;28;20478;-66
2023/01/24 07:27:21;;;;;;;3.37;2.57;;;2.70;99.90;4.10;98113.00;;;;5047889;28;20439;-66
2023/01/24 07:30:11;;;;;;;2.73;2.37;;;2.70;99.90;4.20;98122.00;;;;5041470;28;20433;-67
2023/01/24 07:33:01;;;;;;;4.93;2.80;;;2.70;99.90;4.20;98119.00;;;;5034611;28;20784;-66
2023/01/24 07:35:50;;;;;;;3.93;2.37;;;2.80;99.90;4.20;98124.00;;;;5028879;28;20423;-67
2023/01/24 07:38:39;;;;;;;3.23;1.53;;;2.80;99.90;4.00;98116.00;;;;5033104;28;20883;-66
2023/01/24 07:41:27;;;;;;;1.40;1.30;;;2.80;99.90;4.10;98121.00;;;;5050037;28;20471;-66
2023/01/24 07:44:16;;;;;;;3.20;2.70;;;2.80;99.90;4.00;98115.00;;;;5049920;28;20427;-66
2023/01/24 07:47:05;;;;;;;4.57;2.23;;;2.80;99.90;4.00;98113.00;;;;5050752;28;20424;-66
2023/01/24 07:49:56;;;;;;;2.83;1.90;;;2.80;99.90;4.20;98122.00;;;;5036054;28;20441;-66
2023/01/24 07:52:45;;;;;;;2.43;2.10;;;2.80;99.90;4.20;98114.00;;;;5039563;28;20434;-66
2023/01/24 07:55:34;;;;;;;3.07;2.37;;;2.90;99.90;4.20;98127.00;;;;5025667;28;20440;-66
2023/01/24 07:58:22;;;;;;;2.87;2.57;;;2.90;99.90;4.20;98126.00;;;;5035931;28;20412;-66
2023/01/24 08:01:17;;;;;;;4.73;2.93;;;3.00;99.90;4.20;98127.00;;;;5047461;28;20552;-66
2023/01/24 08:04:06;;;;;;;3.23;2.60;;;3.00;99.90;4.30;98133.00;;;;5050141;28;20427;-66
2023/01/24 08:10:02;;;;;;;3.07;2.43;;;3.00;99.90;4.20;98146.00;;;;5031024;28;20482;-66
2023/01/24 08:12:51;;;;;;;5.77;4.77;;;3.10;99.90;4.50;98142.00;;;;5024751;28;20432;-66
2023/01/24 08:15:39;;;;;;;9.23;6.30;;;3.00;99.90;4.40;98146.00;;;;5050519;28;20416;-66
2023/01/24 08:18:28;;;;;;;13.60;6.83;;;3.10;99.90;4.50;98156.00;;;;5047453;28;20438;-66
2023/01/24 08:21:17;;;;;;;12.00;6.40;;;3.00;99.90;4.60;98154.00;;;;5050139;28;20235;-66
2023/01/24 08:24:08;;;;;;;7.07;4.43;;;3.10;99.90;4.60;98163.00;;;;5050236;28;20443;-66
2023/01/24 08:26:57;;;;;;;5.47;4.70;;;3.10;99.90;4.60;98163.00;;;;5049846;28;20442;-66
2023/01/24 08:29:45;;;;;;;5.50;3.90;;;3.10;99.90;4.60;98158.00;;;;5048831;28;20642;-66
2023/01/24 08:32:34;;;;;;;5.63;4.10;;;3.10;99.90;4.60;98162.00;;;;5049256;28;20208;-66
2023/01/24 08:35:23;;;;;;;6.07;4.57;;;3.10;99.90;4.70;98162.00;;;;5045920;28;20208;-66
2023/01/24 08:38:12;;;;;;;7.53;3.50;;;3.20;99.90;4.80;98173.00;;;;5049707;28;20337;-66
2023/01/24 08:41:07;;;;;;;6.87;4.67;;;3.20;99.90;4.80;98172.00;;;;5032078;28;20744;-66
2023/01/24 08:43:57;;;;;;;5.40;4.90;;;3.30;99.90;4.60;98169.00;;;;5023212;28;20198;-66
2023/01/24 08:46:45;;;;;;;8.20;4.27;;;3.30;99.90;4.60;98173.00;;;;5033311;28;20453;-66
2023/01/24 08:49:34;;;;;;;6.10;4.37;;;3.20;99.90;4.60;98180.00;;;;5026762;28;20264;-66
2023/01/24 08:52:23;;;;;;;4.93;4.07;;;3.30;99.90;4.50;98171.00;;;;5031956;28;20208;-66
2023/01/24 08:55:11;;;;;;;7.20;4.27;;;3.30;99.90;4.60;98177.00;;;;5025949;28;20421;-66
2023/01/24 08:58:04;;;;;;;5.13;3.93;;;3.30;99.90;4.60;98171.00;;;;5019007;28;20769;-66
2023/01/24 09:00:53;;;;;;;5.33;4.00;;;3.30;99.90;4.90;98180.00;;;;5028742;28;20448;-66
2023/01/24 09:03:41;;;;;;;5.40;3.80;;;3.40;99.90;5.00;98173.00;;;;5031016;28;20197;-66
2023/01/24 09:06:30;;;;;;;4.17;3.77;;;3.40;99.90;5.00;98182.00;;;;5035679;28;20946;-66
2023/01/24 09:09:19;;;;;;;8.27;4.67;;;3.50;99.90;4.80;98181.00;;;;5049120;28;20478;-66
2023/01/24 09:12:08;;;;;;;6.37;4.73;;;3.50;99.90;4.80;98184.00;;;;5043169;28;20975;-66
2023/01/24 09:14:58;;;;;;;7.33;4.40;;;3.50;99.90;4.90;98189.00;;;;5017413;28;20209;-66
2023/01/24 09:17:47;;;;;;;7.67;5.47;;;3.50;99.90;4.90;98190.00;;;;5027881;28;20597;-66
2023/01/24 09:20:35;;;;;;;4.63;3.40;;;3.60;99.90;5.10;98197.00;;;;5029069;28;20447;-66
2023/01/24 09:23:24;;;;;;;4.50;3.77;;;3.60;99.90;5.20;98199.00;;;;5018956;28;20222;-64
2023/01/24 09:26:13;;;;;;;4.27;3.87;;;3.60;99.90;5.10;98201.00;;;;5022256;28;20204;-64
2023/01/24 09:29:02;;;;;;;6.30;3.80;;;3.70;99.90;5.20;98195.00;;;;5030785;28;20204;-65
2023/01/24 09:31:54;;;;;;;8.97;4.87;;;3.70;99.90;5.10;98195.00;;;;5027733;28;20616;-65
2023/01/24 09:34:46;;;;;;;7.20;4.30;;;3.70;99.90;5.10;98199.00;;;;5020357;28;20201;-65
2023/01/24 09:37:35;;;;;;;4.20;3.33;;;3.80;99.90;5.10;98199.00;;;;5028303;28;20247;-65
2023/01/24 09:40:30;;;;;;;4.87;3.97;;;3.80;99.90;5.10;98199.00;;;;5029171;28;20221;-65
2023/01/24 09:43:46;;;;;;;7.20;5.10;;;3.80;99.90;5.20;98202.00;;;;5029428;28;20225;-65
2023/01/24 09:46:41;;;;;;;4.70;4.10;;;3.80;99.90;5.10;98191.00;;;;5023809;28;20209;-65
2023/01/24 09:49:40;;;;;;;7.10;5.17;;;3.80;99.90;5.00;98189.00;;;;5022910;28;20568;-65
2023/01/24 09:52:35;;;;;;;6.20;5.47;;;3.80;99.90;5.00;98193.00;;;;5023124;28;20640;-65
2023/01/24 09:55:28;;;;;;;16.13;9.00;;;3.80;99.90;5.00;98190.00;;;;5025979;28;20204;-65
2023/01/24 09:58:30;;;;;;;8.90;7.33;;;3.70;99.90;5.20;98196.00;;;;5032236;28;20691;-65
2023/01/24 10:01:21;;;;;;;8.57;6.43;;;3.80;99.90;5.30;98196.00;;;;5018058;28;20220;-64
2023/01/24 10:04:17;;;;;;;8.17;5.53;;;3.80;99.90;5.30;98198.00;;;;5023525;28;20252;-64
2023/01/24 10:07:26;;;;;;;6.80;5.40;;;3.80;99.90;5.30;98197.00;;;;5025505;28;20935;-64
2023/01/24 10:10:42;;;;;;;6.73;5.13;;;3.80;99.90;5.30;98196.00;;;;5019297;28;20243;-65
2023/01/24 10:14:10;;;;;;;5.57;4.60;;;3.90;99.90;5.20;98195.00;;;;5023821;28;20572;-65
2023/01/24 10:17:24;;;;;;;5.30;4.57;;;3.90;99.90;5.10;98190.00;;;;5024464;28;20248;-65
2023/01/24 10:20:32;;;;;;;10.63;6.77;;;3.80;99.90;4.90;98187.00;;;;5021538;28;20226;-65
2023/01/24 10:23:28;;;;;;;11.43;7.50;;;3.80;99.90;4.90;98178.00;;;;5021690;28;20232;-65
2023/01/24 10:26:21;;;;;;;6.77;5.77;;;3.70;99.90;4.90;98175.00;;;;5026552;28;20303;-65
2023/01/24 10:29:17;;;;;;;9.37;5.40;;;3.70;99.90;4.90;98178.00;;;;5020498;28;20220;-65
2023/01/24 10:32:11;;;;;;;5.27;4.23;;;3.70;99.90;5.10;98179.00;;;;5023593;28;20225;-65
2023/01/24 10:35:13;;;;;;;5.57;4.37;;;3.70;99.90;5.20;98188.00;;;;5025495;28;20704;-65
2023/01/24 10:38:08;;;;;;;13.13;4.87;;;3.70;99.90;5.30;98177.00;;;;5034301;28;20250;-65
2023/01/24 10:41:16;;;;;;;8.10;6.07;;;3.70;99.90;5.30;98178.00;;;;5022792;28;20283;-65
2023/01/24 10:44:15;;;;;;;9.67;6.33;;;3.80;99.90;5.20;98168.00;;;;5022545;28;20202;-64
2023/01/24 10:47:44;;;;;;;8.40;5.43;;;3.80;99.90;5.10;98170.00;;;;5016052;28;20197;-65
2023/01/24 10:50:42;;;;;;;11.83;6.40;;;3.80;99.90;5.10;98176.00;;;;5030023;28;20249;-63
2023/01/24 10:53:30;;;;;;;8.60;7.33;;;3.80;99.90;5.10;98169.00;;;;5027125;28;20205;-65
2023/01/24 10:56:22;;;;;;;10.00;6.70;;;3.80;99.90;5.20;98164.00;;;;5026493;28;20672;-65
2023/01/24 10:59:13;;;;;;;7.50;6.67;;;3.80;99.90;5.30;98163.00;;;;5026535;28;20197;-65
2023/01/24 11:02:02;;;;;;;11.67;7.03;;;3.80;99.90;5.20;98156.00;;;;5022145;28;20761;-65
2023/01/24 11:05:00;;;;;;;11.77;7.13;;;3.80;99.90;5.30;98163.00;;;;5029180;28;20247;-65
2023/01/24 11:07:51;;;;;;;7.07;6.40;;;3.80;99.90;5.30;98162.00;;;;5029729;28;20201;-64
2023/01/24 11:10:43;;;;;;;6.87;5.37;;;3.90;99.90;5.30;98164.00;;;;5032232;28;20225;-65
2023/01/24 11:13:38;;;;;;;6.80;5.67;;;3.90;99.90;5.40;98153.00;;;;5026844;28;20241;-65
2023/01/24 11:16:32;;;;;;;4.73;4.27;;;3.90;99.90;5.50;98141.00;;;;5026897;28;20206;-65
2023/01/24 11:19:29;;;;;;;7.13;5.60;;;3.90;99.90;5.50;98149.00;;;;5032991;28;20196;-65
2023/01/24 11:22:23;;;;;;;5.43;4.47;;;3.90;99.90;5.40;98138.00;;;;5037852;28;20274;-64
2023/01/24 11:25:16;;;;;;;4.30;3.90;;;3.90;99.90;5.30;98138.00;;;;5028631;28;20233;-65
2023/01/24 11:28:04;;;;;;;4.30;3.93;;;3.90;99.90;5.20;98148.00;;;;5018787;28;20256;-64
2023/01/24 11:30:57;;;;;;;12.10;4.20;;;3.90;99.90;5.30;98138.00;;;;5022347;28;20220;-65
2023/01/24 11:34:15;;;;;;;5.00;4.17;;;3.90;99.90;5.20;98134.00;;;;5024662;28;20197;-65
2023/01/24 11:37:17;;;;;;;3.97;3.67;;;3.90;99.90;5.50;98135.00;;;;5024621;28;20205;-64
2023/01/24 11:40:24;;;;;;;5.60;5.00;;;3.90;99.90;5.60;98137.00;;;;5022166;28;20217;-65
2023/01/24 11:43:32;;;;;;;7.03;4.73;;;4.00;99.90;5.50;98129.00;;;;5024243;28;20217;-64
2023/01/24 11:46:45;;;;;;;4.93;4.03;;;4.00;99.90;5.60;98126.00;;;;5027264;28;20662;-65
2023/01/24 11:50:17;;;;;;;10.60;6.10;;;4.00;99.90;5.40;98121.00;;;;5025228;28;20225;-65
2023/01/24 11:53:30;;;;;;;11.07;7.80;;;4.00;99.90;5.60;98127.00;;;;5026872;28;20207;-64
2023/01/24 11:56:29;;;;;;;13.17;7.40;;;4.10;99.90;5.70;98117.00;;;;5018299;28;20197;-65
2023/01/24 11:59:50;;;;;;;8.63;5.80;;;4.10;99.90;5.70;98120.00;;;;5028778;28;20716;-65
2023/01/24 12:03:21;;;;;;;5.70;4.30;;;4.10;99.90;5.60;98120.00;;;;5024586;28;20233;-64
2023/01/24 12:06:27;;;;;;;5.77;4.67;;;4.10;99.90;5.70;98108.00;;;;5030506;28;20197;-65
2023/01/24 12:09:21;;;;;;;5.97;4.73;;;4.20;99.90;5.80;98107.00;;;;5031980;28;20279;-65
2023/01/24 12:12:19;;;;;;;8.17;6.03;;;4.20;99.90;5.70;98110.00;;;;5024212;28;20218;-64
2023/01/24 12:15:32;;;;;;;6.43;5.80;;;4.20;99.90;5.90;98101.00;;;;5019963;28;20209;-64
2023/01/24 12:18:54;;;;;;;10.73;8.97;;;4.20;99.90;5.90;98105.00;;;;5019411;28;20209;-64
2023/01/24 12:21:42;;;;;;;10.63;6.93;;;4.30;99.90;5.90;98098.00;;;;5027395;28;20248;-64
2023/01/24 12:24:35;;;;;;;7.70;5.87;;;4.30;99.90;6.00;98097.00;;;;5023141;28;20226;-65
2023/01/24 12:27:26;;;;;;;8.70;6.83;;;4.40;99.90;6.00;98100.00;;;;5030568;28;20208;-64
2023/01/24 12:30:24;;;;;;;8.93;5.23;;;4.40;99.90;6.00;98095.00;;;;5030403;28;20221;-65
2023/01/24 12:33:23;;;;;;;5.90;5.33;;;4.40;99.90;6.10;98100.00;;;;5029472;28;20263;-65
2023/01/24 12:36:20;;;;;;;8.47;5.67;;;4.40;99.90;5.90;98103.00;;;;5023276;28;20193;-65
2023/01/24 12:39:17;;;;;;;9.53;6.20;;;4.50;99.90;5.70;98094.00;;;;5025347;28;20209;-65
2023/01/24 12:42:14;;;;;;;8.90;4.83;;;4.50;99.90;5.60;98088.00;;;;5023538;28;20604;-64
2023/01/24 12:45:12;;;;;;;9.70;5.87;;;4.40;99.90;5.80;98087.00;;;;5028950;28;20676;-65
2023/01/24 12:48:11;;;;;;;6.00;5.40;;;4.50;99.90;5.90;98095.00;;;;5033923;28;20676;-65
2023/01/24 12:51:17;;;;;;;9.40;6.27;;;4.40;99.90;5.90;98100.00;;;;5032678;28;20220;-65
2023/01/24 12:54:13;;;;;;;12.13;5.43;;;4.50;99.90;6.00;98093.00;;;;5030091;28;20205;-65
2023/01/24 12:57:15;;;;;;;9.83;6.10;;;4.40;99.90;6.10;98093.00;;;;5025592;28;20212;-65
2023/01/24 13:00:06;;;;;;;9.37;6.73;;;4.50;99.90;6.10;98093.00;;;;5021891;28;20221;-65
2023/01/24 13:03:22;;;;;;;9.23;6.17;;;4.50;99.90;6.20;98089.00;;;;5029153;28;20213;-65
2023/01/24 13:06:22;;;;;;;8.83;5.50;;;4.60;99.90;6.30;98096.00;;;;5036422;28;20200;-64
2023/01/24 13:09:22;;;;;;;5.70;4.70;;;4.60;99.90;6.20;98096.00;;;;5038926;28;20260;-65
2023/01/24 13:12:17;;;;;;;8.20;5.30;;;4.60;99.90;6.30;98095.00;;;;5024760;28;20225;-65
2023/01/24 13:15:15;;;;;;;4.53;4.10;;;4.70;99.90;6.30;98110.00;;;;5030173;28;20691;-64
2023/01/24 13:18:19;;;;;;;4.53;4.10;;;4.70;99.90;6.30;98099.00;;;;5032253;28;20204;-64
2023/01/24 13:21:18;;;;;;;7.03;5.07;;;4.70;99.90;6.40;98096.00;;;;5045028;28;20272;-65
2023/01/24 13:24:29;;;;;;;11.17;6.27;;;4.70;99.90;6.20;98093.00;;;;5016644;28;20217;-65
2023/01/24 13:27:38;;;;;;;6.13;5.53;;;4.70;99.90;6.10;98093.00;;;;5029429;28;20227;-65
2023/01/24 13:30:38;;;;;;;8.23;5.37;;;4.70;99.90;6.00;98082.00;;;;5033563;28;20228;-65
2023/01/24 13:33:36;;;;;;;8.13;5.47;;;4.70;99.90;6.10;98090.00;;;;5045224;28;20209;-65
2023/01/24 13:36:32;;;;;;;10.83;5.37;;;4.70;99.90;6.00;98094.00;;;;5035410;28;20351;-65
2023/01/24 13:39:35;;;;;;;6.40;5.73;;;4.70;99.90;6.30;98101.00;;;;5044137;28;20668;-65
2023/01/24 13:42:33;;;;;;;11.43;7.43;;;4.70;99.90;6.30;98109.00;;;;5032634;28;20706;-65
2023/01/24 13:45:47;;;;;;;14.23;8.33;;;4.70;99.90;6.40;98111.00;;;;5049856;28;20638;-65
2023/01/24 13:48:54;;;;;;;9.50;6.90;;;4.70;99.90;6.30;98104.00;;;;5037536;28;20285;-65